Time;durP1;ratioP1;P1;durP2;ratioP2;P2;SDS_P1;SDS_P2;PMS_P1;PMS_P2;Temp;Humidity;BMP_temperature;BMP_pressure;BME280_temperature;BME280_humidity;BME280_pressure;Samples;Min_cycle;Max_cycle;Signal;HPM_P1;HPM_P2
2021/04/23 00:00:53;;;;;;;8.57;4.72;;;;;;;5.03;61.20;101403.66;5054478;28;20053;-76
2021/04/23 00:03:27;;;;;;;7.97;4.85;;;;;;;4.98;61.35;101405.53;5053451;28;20061;-76
2021/04/23 00:05:58;;;;;;;13.98;5.43;;;;;;;4.91;61.39;101404.88;5054919;28;20045;-76
2021/04/23 00:08:27;;;;;;;9.18;5.30;;;;;;;4.84;61.58;101411.41;5057416;28;20053;-76
2021/04/23 00:10:55;;;;;;;14.32;5.93;;;;;;;4.79;61.46;101414.09;5058135;28;20049;-76
2021/04/23 00:13:23;;;;;;;12.05;6.18;;;;;;;4.68;62.33;101418.63;5057847;28;20053;-76
2021/04/23 00:15:51;;;;;;;10.80;5.50;;;;;;;4.62;62.77;101410.50;5058554;28;20053;-76
2021/04/23 00:18:19;;;;;;;10.07;5.30;;;;;;;4.58;62.73;101407.41;5062901;28;20053;-76
2021/04/23 00:20:46;;;;;;;12.02;5.22;;;;;;;4.54;62.16;101394.38;5065255;28;20060;-76
2021/04/23 00:23:13;;;;;;;12.00;5.35;;;;;;;4.52;62.27;101407.59;5059810;28;20053;-76
2021/04/23 00:25:41;;;;;;;8.25;4.57;;;;;;;4.48;62.16;101413.59;5040906;28;20049;-76
2021/04/23 00:28:11;;;;;;;11.65;4.90;;;;;;;4.43;62.14;101402.50;5040565;28;20406;-76
2021/04/23 00:30:42;;;;;;;10.05;5.00;;;;;;;4.38;62.98;101401.56;5038969;28;20056;-76
2021/04/23 00:33:10;;;;;;;9.40;4.68;;;;;;;4.31;62.64;101401.72;5037413;28;20190;-76
2021/04/23 00:35:41;;;;;;;13.40;4.95;;;;;;;4.32;62.53;101403.38;5037321;28;20417;-75
2021/04/23 00:38:11;;;;;;;10.43;4.80;;;;;;;4.26;62.92;101405.25;5038502;28;20413;-76
2021/04/23 00:40:42;;;;;;;9.52;5.00;;;;;;;4.22;62.79;101404.06;5057045;28;20482;-76
2021/04/23 00:43:09;;;;;;;10.20;4.90;;;;;;;4.20;62.82;101405.38;5057110;28;20057;-76
2021/04/23 00:45:36;;;;;;;13.82;5.60;;;;;;;4.15;63.10;101408.06;5056701;28;20052;-76
2021/04/23 00:48:07;;;;;;;12.75;5.03;;;;;;;4.09;63.93;101400.78;5057033;28;20049;-76
2021/04/23 00:50:38;;;;;;;;;;;;;;;4.06;63.75;101402.94;5057673;28;20393;-76
2021/04/23 00:53:06;;;;;;;7.28;4.40;;;;;;;4.00;63.74;101406.69;5056375;28;19928;-76
2021/04/23 00:55:33;;;;;;;11.60;4.93;;;;;;;3.98;64.14;101403.34;5056412;28;20401;-76
2021/04/23 00:58:00;;;;;;;9.45;5.18;;;;;;;3.97;64.06;101412.72;5055578;28;20045;-76
2021/04/23 01:00:28;;;;;;;12.55;4.93;;;;;;;3.91;64.18;101410.94;5056438;28;20049;-75
2021/04/23 01:02:55;;;;;;;9.50;4.88;;;;;;;3.89;64.49;101406.75;5055961;28;20053;-76
2021/04/23 01:05:31;;;;;;;8.05;4.68;;;;;;;3.87;64.36;101404.25;5056083;28;20053;-75
2021/04/23 01:07:58;;;;;;;7.13;4.55;;;;;;;3.82;64.23;101405.00;5056234;28;20056;-75
2021/04/23 01:10:25;;;;;;;7.15;4.35;;;;;;;3.80;64.21;101404.41;5055748;28;20531;-75
2021/04/23 01:12:53;;;;;;;8.80;5.00;;;;;;;3.77;63.76;101406.81;5056101;28;20523;-76
2021/04/23 01:15:20;;;;;;;11.73;5.38;;;;;;;3.73;63.89;101409.19;5055992;28;20053;-75
2021/04/23 01:17:48;;;;;;;11.10;6.15;;;;;;;3.73;63.91;101414.72;5055423;28;20401;-75
2021/04/23 01:20:16;;;;;;;10.00;5.40;;;;;;;3.71;64.29;101414.13;5055611;28;20059;-75
2021/04/23 01:22:44;;;;;;;10.07;5.70;;;;;;;3.65;64.17;101420.63;5055748;28;20064;-75
2021/04/23 01:25:14;;;;;;;10.75;5.50;;;;;;;3.63;64.62;101411.75;5044371;28;20056;-75
2021/04/23 01:27:41;;;;;;;12.30;6.13;;;;;;;3.58;64.82;101415.25;5035763;28;20045;-75
2021/04/23 01:30:11;;;;;;;10.20;5.78;;;;;;;3.56;64.77;101417.41;5036447;28;20049;-75
2021/04/23 01:32:39;;;;;;;11.02;5.68;;;;;;;3.57;64.77;101413.59;5035931;28;20057;-75
2021/04/23 01:35:13;;;;;;;10.73;4.88;;;;;;;3.56;64.64;101414.66;5036009;28;20065;-75
2021/04/23 01:37:40;;;;;;;10.82;4.93;;;;;;;3.54;64.74;101425.09;5037243;28;20054;-76
2021/04/23 01:40:11;;;;;;;12.23;5.55;;;;;;;3.50;64.68;101423.06;5050383;28;20500;-75
2021/04/23 01:42:39;;;;;;;11.25;5.72;;;;;;;3.47;64.91;101418.88;5056970;28;20413;-76
2021/04/23 01:45:10;;;;;;;14.20;5.78;;;;;;;3.43;64.88;101417.69;5055757;28;20053;-75
2021/04/23 01:47:37;;;;;;;11.10;5.70;;;;;;;3.41;64.64;101419.84;5056292;28;20053;-75
2021/04/23 01:50:07;;;;;;;11.02;5.30;;;;;;;3.37;64.59;101413.16;5056997;28;20052;-76
2021/04/23 01:52:34;;;;;;;12.85;6.00;;;;;;;3.34;64.84;101413.63;5057894;28;20061;-75
2021/04/23 01:55:01;;;;;;;7.82;4.82;;;;;;;3.32;65.37;101419.41;5056744;28;20083;-76
2021/04/23 01:57:29;;;;;;;12.20;5.75;;;;;;;3.29;65.53;101422.63;5057628;28;20485;-75
2021/04/23 01:59:56;;;;;;;9.73;5.10;;;;;;;3.28;65.45;101425.66;5055815;28;20049;-76
2021/04/23 02:02:25;;;;;;;10.63;5.47;;;;;;;3.23;65.35;101429.09;5056262;28;20425;-75
2021/04/23 02:04:55;;;;;;;10.43;5.55;;;;;;;3.21;65.91;101434.00;5055999;28;20057;-75
2021/04/23 02:07:22;;;;;;;11.05;5.43;;;;;;;3.16;65.53;101429.22;5056086;28;20049;-75
2021/04/23 02:09:49;;;;;;;11.88;5.80;;;;;;;3.12;65.91;101428.03;5055558;28;20057;-76
2021/04/23 02:12:17;;;;;;;12.52;6.53;;;;;;;3.11;65.69;101428.28;5055692;28;20061;-75
2021/04/23 02:14:44;;;;;;;10.85;5.93;;;;;;;3.09;65.17;101439.53;5056431;28;20068;-76
2021/04/23 02:17:11;;;;;;;10.63;5.65;;;;;;;3.09;65.49;101438.69;5055668;28;20053;-75
2021/04/23 02:19:38;;;;;;;7.82;4.95;;;;;;;3.05;65.62;101433.69;5056271;28;20056;-76
2021/04/23 02:22:05;;;;;;;12.40;5.50;;;;;;;3.00;65.35;101433.56;5055167;28;20049;-76
2021/04/23 02:24:32;;;;;;;11.60;6.10;;;;;;;2.95;66.61;101438.13;5055854;28;20053;-76
2021/04/23 02:26:59;;;;;;;8.98;5.75;;;;;;;2.93;66.18;101440.28;5055708;28;20176;-76
2021/04/23 02:29:26;;;;;;;13.55;6.35;;;;;;;2.94;66.52;101444.69;5054198;28;20053;-75
2021/04/23 02:31:55;;;;;;;11.57;5.78;;;;;;;2.93;66.07;101445.78;5055556;28;20401;-75
2021/04/23 02:34:25;;;;;;;12.90;5.72;;;;;;;2.93;66.03;101445.78;5055269;28;20390;-75
2021/04/23 02:36:52;;;;;;;;;;;;;;;2.88;65.40;101445.63;5052445;28;20402;-75
2021/04/23 02:39:20;;;;;;;11.10;5.25;;;;;;;2.80;65.26;101441.34;5053705;28;19921;-76
2021/04/23 02:41:49;;;;;;;13.57;5.70;;;;;;;2.73;65.63;101448.84;5054522;28;20045;-77
2021/04/23 02:44:16;;;;;;;12.20;5.32;;;;;;;2.69;66.29;101448.53;5054972;28;20390;-76
2021/04/23 02:46:44;;;;;;;11.30;6.32;;;;;;;2.65;66.09;101455.56;5053496;28;20052;-75
2021/04/23 02:49:14;;;;;;;12.30;5.97;;;;;;;2.63;66.89;101463.22;5053572;28;20060;-75
2021/04/23 02:51:46;;;;;;;12.27;6.05;;;;;;;2.61;66.20;101455.19;5053298;28;20064;-76
2021/04/23 02:54:13;;;;;;;13.10;5.75;;;;;;;2.58;66.42;101458.44;5053337;28;20053;-76
2021/04/23 02:56:41;;;;;;;13.23;5.93;;;;;;;2.57;66.43;101465.00;5052799;28;20049;-75
2021/04/23 02:59:08;;;;;;;13.55;5.53;;;;;;;2.54;66.48;101473.72;5052858;28;20045;-76
2021/04/23 03:01:39;;;;;;;10.40;5.60;;;;;;;2.56;66.46;101473.47;5053118;28;20067;-75
2021/04/23 03:04:06;;;;;;;12.15;5.43;;;;;;;2.51;66.20;101470.59;5052852;28;20432;-75
2021/04/23 03:06:34;;;;;;;14.77;5.65;;;;;;;2.51;66.49;101476.94;5053650;28;20057;-76
2021/04/23 03:09:04;;;;;;;12.77;5.78;;;;;;;2.48;67.18;101476.56;5053269;28;20060;-76
2021/04/23 03:11:31;;;;;;;15.23;6.20;;;;;;;2.47;67.13;101474.91;5053018;28;20497;-76
2021/04/23 03:14:00;;;;;;;12.38;5.45;;;;;;;2.46;67.57;101474.06;5052853;28;20060;-76
2021/04/23 03:16:28;;;;;;;16.20;6.38;;;;;;;2.44;67.50;101474.28;5052907;28;20045;-76
2021/04/23 03:18:56;;;;;;;12.10;5.80;;;;;;;2.40;67.22;101477.75;5052608;28;20057;-76
2021/04/23 03:21:26;;;;;;;11.38;6.93;;;;;;;2.38;67.33;101480.72;5053544;28;20076;-76
2021/04/23 03:23:55;;;;;;;12.23;6.47;;;;;;;2.39;67.81;101479.69;5052779;28;20061;-76
2021/04/23 03:26:24;;;;;;;13.77;6.35;;;;;;;2.41;67.03;101480.25;5053488;28;20056;-76
2021/04/23 03:28:52;;;;;;;10.10;5.65;;;;;;;2.41;67.29;101483.00;5053323;28;20092;-75
2021/04/23 03:31:23;;;;;;;12.93;5.82;;;;;;;2.39;67.51;101482.44;5053898;28;20060;-75
2021/04/23 03:33:51;;;;;;;13.00;6.18;;;;;;;2.38;67.29;101482.66;5053568;28;20053;-75
2021/04/23 03:36:18;;;;;;;11.85;6.03;;;;;;;2.36;67.53;101484.81;5052930;28;20156;-75
2021/04/23 03:38:46;;;;;;;11.60;5.80;;;;;;;2.33;67.19;101485.25;5053553;28;20430;-76
2021/04/23 03:41:17;;;;;;;10.48;5.00;;;;;;;2.32;67.00;101489.91;5057288;28;20053;-75
2021/04/23 03:43:44;;;;;;;10.18;5.40;;;;;;;2.33;67.08;101490.75;5057796;28;20063;-75
2021/04/23 03:46:14;;;;;;;13.63;5.85;;;;;;;2.30;66.87;101489.31;5057806;28;20049;-75
2021/04/23 03:48:44;;;;;;;;;;;;;;;2.26;67.19;101495.53;5058177;28;20052;-75
2021/04/23 03:51:11;;;;;;;11.10;5.60;;;;;;;2.21;67.05;101494.31;5057929;28;19920;-76
2021/04/23 03:53:39;;;;;;;14.23;6.65;;;;;;;2.19;67.47;101490.97;5057615;28;20508;-76
2021/04/23 03:56:07;;;;;;;15.23;6.68;;;;;;;2.16;67.98;101496.06;5056504;28;20060;-75
2021/04/23 03:58:35;;;;;;;12.50;5.95;;;;;;;2.18;68.03;101500.28;5056474;28;20048;-75
2021/04/23 04:01:06;;;;;;;13.27;6.15;;;;;;;2.17;68.06;101500.50;5057299;28;20064;-76
2021/04/23 04:03:33;;;;;;;15.30;6.93;;;;;;;2.15;67.79;101511.72;5057300;28;20056;-76
2021/04/23 04:06:00;;;;;;;14.05;6.35;;;;;;;2.16;68.02;101507.06;5056690;28;20064;-75
2021/04/23 04:08:27;;;;;;;14.52;6.47;;;;;;;2.14;67.88;101514.72;5057039;28;20395;-76
2021/04/23 04:10:54;;;;;;;13.52;6.13;;;;;;;2.14;67.90;101515.56;5056863;28;20501;-75
2021/04/23 04:13:21;;;;;;;12.93;6.15;;;;;;;2.16;67.59;101515.31;5056425;28;20057;-75
2021/04/23 04:15:49;;;;;;;13.77;7.00;;;;;;;2.15;67.93;101521.91;5056701;28;20520;-76
2021/04/23 04:18:17;;;;;;;15.30;6.75;;;;;;;2.15;67.67;101521.91;5056789;28;20057;-75
2021/04/23 04:20:46;;;;;;;14.82;6.43;;;;;;;2.15;67.79;101521.91;5056118;28;20060;-75
2021/04/23 04:23:16;;;;;;;12.38;6.38;;;;;;;2.17;68.08;101519.75;5055390;28;20458;-75
2021/04/23 04:25:46;;;;;;;12.70;6.15;;;;;;;2.17;67.34;101520.59;5056649;28;20053;-75
2021/04/23 04:28:14;;;;;;;12.57;5.72;;;;;;;2.19;67.43;101512.94;5056269;28;20053;-75
2021/04/23 04:30:41;;;;;;;14.25;6.30;;;;;;;2.18;67.65;101533.28;5056922;28;20060;-75
2021/04/23 04:33:10;;;;;;;17.73;7.20;;;;;;;2.21;67.18;101532.78;5056874;28;20048;-75
2021/04/23 04:35:38;;;;;;;15.47;7.63;;;;;;;2.22;67.05;101539.13;5057003;28;20073;-75
2021/04/23 04:38:07;;;;;;;17.95;8.07;;;;;;;2.26;67.88;101534.00;5056204;28;20152;-75
2021/04/23 04:40:35;;;;;;;16.85;7.72;;;;;;;2.30;68.20;101535.22;5057246;28;20056;-75
2021/04/23 04:43:02;;;;;;;15.00;7.88;;;;;;;2.36;67.85;101534.28;5056990;28;20049;-75
2021/04/23 04:45:29;;;;;;;17.60;8.43;;;;;;;2.38;66.91;101534.91;5056540;28;20048;-75
2021/04/23 04:47:56;;;;;;;14.15;7.75;;;;;;;2.34;67.12;101537.25;5056851;28;20041;-76
2021/04/23 04:50:27;;;;;;;19.02;8.40;;;;;;;2.34;66.81;101536.44;5056947;28;20132;-76
2021/04/23 04:52:58;;;;;;;19.75;8.30;;;;;;;2.35;66.62;101536.22;5056178;28;20060;-75
2021/04/23 04:55:27;;;;;;;19.83;9.10;;;;;;;2.35;67.30;101535.34;5056753;28;20052;-76
2021/04/23 04:57:54;;;;;;;22.95;9.38;;;;;;;2.37;66.61;101547.81;5056037;28;20505;-76
2021/04/23 05:00:28;;;;;;;17.02;8.70;;;;;;;2.39;67.12;101545.66;5055516;28;20132;-75
2021/04/23 05:02:56;;;;;;;16.95;7.88;;;;;;;2.43;67.26;101543.28;5055844;28;20425;-75
2021/04/23 05:05:24;;;;;;;16.73;8.40;;;;;;;2.43;67.09;101544.09;5057011;28;20055;-75
2021/04/23 05:07:51;;;;;;;18.33;8.07;;;;;;;2.50;67.35;101545.91;5056618;28;20041;-76
2021/04/23 05:10:18;;;;;;;13.93;7.63;;;;;;;2.57;67.58;101543.91;5056433;28;20532;-75
2021/04/23 05:12:47;;;;;;;14.90;7.43;;;;;;;2.69;66.86;101539.28;5052958;28;20060;-76
2021/04/23 05:15:17;;;;;;;16.00;8.40;;;;;;;2.78;67.17;101545.28;5054453;28;20394;-75
2021/04/23 05:17:44;;;;;;;19.45;8.43;;;;;;;2.81;66.59;101547.56;5055075;28;20056;-77
2021/04/23 05:20:15;;;;;;;18.65;9.02;;;;;;;2.84;66.70;101556.19;5055564;28;20045;-76
2021/04/23 05:22:44;;;;;;;17.60;8.23;;;;;;;2.87;66.36;101563.13;5042070;28;20075;-76
2021/04/23 05:25:14;;;;;;;15.57;8.82;;;;;;;2.89;66.73;101554.63;5052384;28;20041;-76
2021/04/23 05:27:40;;;;;;;19.08;8.18;;;;;;;2.93;66.61;101559.44;5052345;28;20045;-76
2021/04/23 05:30:10;;;;;;;19.38;8.85;;;;;;;3.03;66.70;101556.94;5052274;28;20049;-76
2021/04/23 05:32:38;;;;;;;17.67;8.23;;;;;;;3.08;66.84;101550.72;5053379;28;20075;-76
2021/04/23 05:35:07;;;;;;;17.73;7.65;;;;;;;3.19;67.23;101568.31;5053971;28;20053;-76
2021/04/23 05:37:34;;;;;;;20.17;9.23;;;;;;;3.29;67.08;101564.97;5055161;28;20049;-76
2021/04/23 05:40:06;;;;;;;18.40;8.55;;;;;;;3.39;66.29;101566.06;5055222;28;20053;-76
2021/04/23 05:42:33;;;;;;;22.00;9.18;;;;;;;3.42;66.38;101570.22;5055189;28;20049;-76
2021/04/23 05:45:00;;;;;;;18.00;8.95;;;;;;;3.53;66.10;101566.66;5055061;28;20512;-77
2021/04/23 05:47:27;;;;;;;16.67;8.73;;;;;;;3.68;66.60;101568.91;5040788;28;20049;-76
2021/04/23 05:49:54;;;;;;;15.52;8.23;;;;;;;3.81;65.88;101576.09;5046473;28;20056;-75
2021/04/23 05:52:21;;;;;;;15.55;8.13;;;;;;;3.94;65.70;101584.09;5071566;28;20053;-76
2021/04/23 05:54:48;;;;;;;16.75;8.00;;;;;;;4.05;64.60;101574.97;5071236;28;20044;-76
2021/04/23 05:57:15;;;;;;;16.92;8.45;;;;;;;4.10;65.04;101576.16;5054948;28;20049;-76
2021/04/23 05:59:42;;;;;;;16.27;8.48;;;;;;;4.18;64.74;101575.75;5054041;28;20055;-76
2021/04/23 06:02:10;;;;;;;17.20;8.07;;;;;;;4.27;64.88;101577.88;5054649;28;20049;-75
2021/04/23 06:04:40;;;;;;;16.10;8.25;;;;;;;4.28;64.93;101578.72;5052683;28;20401;-76
2021/04/23 06:07:06;;;;;;;14.90;8.15;;;;;;;4.43;64.56;101586.44;5054456;28;20057;-76
2021/04/23 06:09:33;;;;;;;17.02;8.70;;;;;;;4.54;64.61;101593.03;5054436;28;20045;-76
2021/04/23 06:12:00;;;;;;;17.00;8.63;;;;;;;4.65;64.42;101594.88;5050996;28;20045;-75
2021/04/23 06:14:28;;;;;;;19.50;9.32;;;;;;;4.75;64.03;101594.25;5059204;28;20048;-74
2021/04/23 06:16:56;;;;;;;19.23;9.63;;;;;;;4.83;63.95;101591.06;5074740;28;20060;-74
2021/04/23 06:19:25;;;;;;;19.17;8.98;;;;;;;4.98;63.89;101596.06;5062298;28;20057;-74
2021/04/23 06:21:52;;;;;;;19.35;9.73;;;;;;;5.12;63.52;101591.03;5054366;28;20056;-75
2021/04/23 06:24:19;;;;;;;17.88;9.27;;;;;;;5.24;62.78;101591.78;5054381;28;20495;-75
2021/04/23 06:26:48;;;;;;;21.80;10.25;;;;;;;5.39;62.98;101591.19;5054778;28;20049;-76
2021/04/23 06:29:15;;;;;;;19.33;9.47;;;;;;;5.57;62.34;101592.84;5054939;28;20048;-75
2021/04/23 06:31:43;;;;;;;17.42;9.10;;;;;;;5.61;62.75;101600.38;5055215;28;20448;-75
2021/04/23 06:34:11;;;;;;;15.88;8.82;;;;;;;5.82;62.59;101603.44;5055034;28;20080;-74
2021/04/23 06:36:38;;;;;;;16.92;8.95;;;;;;;5.96;61.84;101598.41;5051720;28;20060;-75
2021/04/23 06:39:14;;;;;;;17.88;9.18;;;;;;;6.13;62.00;101606.66;5036922;28;20041;-74
2021/04/23 06:41:41;;;;;;;22.42;10.15;;;;;;;6.28;61.03;101607.69;5035698;28;20053;-75
2021/04/23 06:44:08;;;;;;;20.52;10.05;;;;;;;6.41;61.12;101609.22;5035153;28;20482;-74
2021/04/23 06:46:35;;;;;;;18.88;9.82;;;;;;;6.53;61.23;101611.00;5034566;28;20064;-75
2021/04/23 06:49:06;;;;;;;16.50;9.40;;;;;;;6.70;60.38;101609.00;5055441;28;20049;-75
2021/04/23 06:51:33;;;;;;;18.25;10.77;;;;;;;6.85;60.01;101600.84;5054999;28;20048;-75
2021/04/23 06:54:00;;;;;;;22.30;10.07;;;;;;;7.02;59.44;101616.53;5055048;28;20079;-82
2021/04/23 06:56:27;;;;;;;21.45;10.68;;;;;;;7.18;59.47;101604.50;5050662;28;20517;-75
2021/04/23 06:58:54;;;;;;;22.58;10.07;;;;;;;7.32;58.97;101604.88;5050269;28;20382;-75
2021/04/23 07:01:24;;;;;;;16.20;9.10;;;;;;;7.51;57.75;101606.13;5050950;28;20060;-74
2021/04/23 07:03:50;;;;;;;17.67;8.80;;;;;;;7.62;58.21;101607.06;5051365;28;20053;-74
2021/04/23 07:06:18;;;;;;;18.10;8.98;;;;;;;7.76;57.06;101603.81;5052208;28;21874;-75
2021/04/23 07:08:45;;;;;;;17.05;9.27;;;;;;;8.00;56.26;101613.38;5036122;28;20738;-74
2021/04/23 07:11:12;;;;;;;17.88;8.77;;;;;;;8.18;55.55;101606.53;5051176;28;20509;-75
2021/04/23 07:13:39;;;;;;;17.92;9.27;;;;;;;8.40;55.28;101602.72;5045325;28;20061;-74
2021/04/23 07:16:06;;;;;;;13.50;8.65;;;;;;;8.72;54.96;101599.81;5039255;28;20060;-74
2021/04/23 07:18:33;;;;;;;17.00;8.45;;;;;;;9.41;52.84;101597.63;5036028;28;20049;-75
2021/04/23 07:20:59;;;;;;;14.05;7.70;;;;;;;10.77;49.85;101588.28;5037361;28;20064;-76
2021/04/23 07:23:27;;;;;;;17.35;8.30;;;;;;;12.46;44.50;101599.84;5045570;28;20060;-74
2021/04/23 07:25:54;;;;;;;13.15;7.10;;;;;;;13.76;41.42;101590.78;5051455;28;20053;-75
2021/04/23 07:28:21;;;;;;;14.55;6.93;;;;;;;13.62;41.42;101592.72;5037632;28;20061;-75
2021/04/23 07:30:48;;;;;;;14.60;6.35;;;;;;;13.50;40.56;101592.38;5043818;28;20061;-74
2021/04/23 07:33:15;;;;;;;14.00;7.82;;;;;;;14.82;38.81;101590.84;5051525;28;20060;-75
2021/04/23 07:35:45;;;;;;;12.65;7.03;;;;;;;15.95;36.39;101594.47;5044016;28;20128;-75
2021/04/23 07:38:12;;;;;;;8.98;5.60;;;;;;;17.28;33.66;101597.25;5056067;28;20053;-75
2021/04/23 07:40:40;;;;;;;13.25;6.32;;;;;;;16.85;33.11;101593.28;5055954;28;20067;-75
2021/04/23 07:43:07;;;;;;;13.52;6.82;;;;;;;16.23;33.54;101595.09;5055006;28;20057;-75
2021/04/23 07:45:34;;;;;;;15.05;7.05;;;;;;;15.60;34.79;101599.03;5054309;28;20053;-74
2021/04/23 07:48:01;;;;;;;13.95;7.18;;;;;;;15.04;36.81;101594.88;5052208;28;20056;-75
2021/04/23 07:50:31;;;;;;;13.10;7.05;;;;;;;14.70;36.55;101604.59;5051994;28;20048;-77
2021/04/23 07:52:57;;;;;;;;;;;;;;;14.90;35.55;101597.72;5054492;28;20057;-78
2021/04/23 07:55:27;;;;;;;10.50;5.95;;;;;;;17.12;32.11;101597.75;5057938;28;19928;-78
2021/04/23 07:57:58;;;;;;;;;;;;;;;17.41;31.05;101599.06;5055274;28;20053;-76
2021/04/23 08:00:26;;;;;;;11.48;5.50;;;;;;;17.19;31.60;101606.53;5054286;28;19925;-75
2021/04/23 08:02:54;;;;;;;11.40;4.82;;;;;;;16.90;30.92;101612.81;5054625;28;20056;-77
2021/04/23 08:05:24;;;;;;;10.77;5.00;;;;;;;16.58;31.06;101617.69;5044761;28;20053;-75
2021/04/23 08:07:51;;;;;;;8.27;5.10;;;;;;;16.24;30.85;101604.38;5051302;28;20052;-76
2021/04/23 08:10:19;;;;;;;13.85;4.63;;;;;;;15.82;31.43;101601.84;5052054;28;20401;-75
2021/04/23 08:12:47;;;;;;;10.45;4.82;;;;;;;15.57;31.50;101599.72;5044039;28;20053;-75
2021/04/23 08:15:17;;;;;;;9.00;5.53;;;;;;;16.64;30.36;101607.13;5051727;28;20053;-74
2021/04/23 08:17:53;;;;;;;9.13;4.75;;;;;;;16.52;30.09;101606.91;5052760;28;20060;-75
2021/04/23 08:20:22;;;;;;;9.65;6.00;;;;;;;16.33;31.07;101610.00;5060348;28;20068;-74
2021/04/23 08:22:50;;;;;;;8.65;6.13;;;;;;;15.98;31.88;101601.44;5067870;28;20055;-74
2021/04/23 08:25:20;;;;;;;12.02;7.20;;;;;;;15.96;32.04;101606.56;5071013;28;20061;-74
2021/04/23 08:27:49;;;;;;;8.95;6.10;;;;;;;16.00;32.03;101607.56;5068935;28;20063;-74
2021/04/23 08:30:23;;;;;;;9.52;6.90;;;;;;;17.48;30.28;101604.19;5070621;28;20386;-74
2021/04/23 08:32:55;;;;;;;10.52;6.45;;;;;;;19.79;26.30;101599.81;5069303;28;20056;-74
2021/04/23 08:35:23;;;;;;;9.63;6.00;;;;;;;22.27;22.30;101588.28;5066895;28;20052;-74
2021/04/23 08:37:54;;;;;;;10.48;5.57;;;;;;;24.73;20.65;101580.56;5067837;28;20061;-74
2021/04/23 08:40:25;;;;;;;8.20;5.05;;;;;;;24.29;19.89;101590.44;5063432;28;20065;-72
2021/04/23 08:42:53;;;;;;;9.98;5.70;;;;;;;23.62;20.47;101590.84;5068316;28;20055;-74
2021/04/23 08:45:23;;;;;;;9.05;5.93;;;;;;;22.99;20.63;101598.47;5068111;28;20090;-75
2021/04/23 08:47:52;;;;;;;9.40;6.15;;;;;;;22.51;21.37;101603.47;5068725;28;20059;-75
2021/04/23 08:50:23;;;;;;;9.82;5.93;;;;;;;23.65;19.76;101595.81;5067808;28;20053;-74
2021/04/23 08:52:51;;;;;;;9.98;6.57;;;;;;;26.41;16.68;101593.88;5066715;28;20057;-75
2021/04/23 08:57:55;;;;;;;7.82;6.18;;;;;;;30.89;12.60;101580.97;5070050;23;20068;-75
2021/04/23 09:00:29;;;;;;;5.95;5.32;;;;;;;30.28;13.37;101574.94;5010475;28;20057;-74
2021/04/23 09:02:56;;;;;;;6.72;5.40;;;;;;;30.80;12.86;101571.97;5016933;28;20080;-73
2021/04/23 09:05:25;;;;;;;8.13;5.60;;;;;;;29.91;13.76;101580.19;5016839;28;20054;-74
2021/04/23 09:08:01;;;;;;;10.27;6.05;;;;;;;28.91;13.71;101586.38;5013016;28;20165;-75
2021/04/23 09:10:32;;;;;;;8.40;5.55;;;;;;;27.44;15.32;101586.31;5016278;28;20085;-76
2021/04/23 09:13:13;;;;;;;8.27;5.38;;;;;;;27.44;15.68;101580.59;5016817;28;20540;-75
2021/04/23 09:15:50;;;;;;;7.50;5.15;;;;;;;26.88;16.06;101583.63;5018705;28;20057;-78
2021/04/23 09:18:21;;;;;;;6.82;4.47;;;;;;;26.75;16.66;101579.44;5003775;28;20059;-78
2021/04/23 09:20:50;;;;;;;9.13;5.25;;;;;;;26.07;16.89;101576.06;5007675;28;20453;-78
2021/04/23 09:23:23;;;;;;;7.18;4.97;;;;;;;26.46;16.88;101587.00;5003097;28;20058;-78
2021/04/23 09:25:52;;;;;;;10.63;6.35;;;;;;;27.78;15.95;101572.50;4996075;28;20145;-78
2021/04/23 09:28:34;;;;;;;7.22;5.78;;;;;;;31.05;13.63;101571.72;5005295;28;20065;-77
2021/04/23 09:31:23;;;;;;;9.50;5.90;;;;;;;32.69;11.53;101560.94;5018592;28;20045;-78
2021/04/23 09:33:52;;;;;;;6.57;5.43;;;;;;;34.39;10.58;101570.34;5018418;28;20072;-74
2021/04/23 09:36:26;;;;;;;8.73;5.68;;;;;;;35.35;9.17;101573.41;5010578;28;20050;-78
2021/04/23 09:39:09;;;;;;;6.28;5.25;;;;;;;36.30;9.48;101567.00;5005050;28;20069;-76
2021/04/23 09:41:39;;;;;;;8.30;5.30;;;;;;;35.01;9.64;101574.00;5012587;28;20064;-75
2021/04/23 09:44:25;;;;;;;8.15;5.60;;;;;;;33.59;10.29;101573.50;5014570;28;20068;-76
2021/04/23 09:47:01;;;;;;;7.35;5.32;;;;;;;31.53;12.47;101575.63;5014179;28;20050;-77
2021/04/23 09:49:29;;;;;;;6.75;5.50;;;;;;;29.83;13.84;101575.72;5000955;28;20050;-79
2021/04/23 09:51:56;;;;;;;8.43;5.28;;;;;;;28.63;14.29;101575.81;5022888;28;20061;-79
2021/04/23 09:54:25;;;;;;;7.47;5.07;;;;;;;28.82;14.61;101565.94;5041076;28;20405;-77
2021/04/23 09:56:53;;;;;;;9.90;6.00;;;;;;;28.19;14.71;101569.28;5021732;28;20409;-77
2021/04/23 09:59:22;;;;;;;8.17;5.03;;;;;;;30.06;13.21;101568.56;5015327;28;20441;-78
2021/04/23 10:02:05;;;;;;;8.80;5.20;;;;;;;32.39;12.14;101564.81;5024654;28;20521;-76
2021/04/23 10:04:34;;;;;;;9.25;4.90;;;;;;;34.41;10.08;101557.03;4997796;28;20502;-75
2021/04/23 10:07:06;;;;;;;7.05;4.82;;;;;;;36.38;9.30;101561.78;5009506;28;20065;-74
2021/04/23 10:09:34;;;;;;;7.22;4.82;;;;;;;37.57;9.07;101564.81;5001386;28;20045;-73
2021/04/23 10:12:04;;;;;;;6.93;5.50;;;;;;;38.36;7.49;101569.41;5007517;28;20058;-75
2021/04/23 10:14:31;;;;;;;6.93;5.57;;;;;;;39.42;6.92;101556.28;5017055;28;20053;-75
2021/04/23 10:16:59;;;;;;;6.57;5.93;;;;;;;40.55;6.45;101558.88;4999332;28;20116;-74
2021/04/23 10:19:29;;;;;;;8.32;5.07;;;;;;;39.18;6.71;101564.88;5004879;28;20074;-74
2021/04/23 10:21:56;;;;;;;9.10;5.07;;;;;;;36.19;8.31;101575.28;5003422;28;20058;-74
2021/04/23 10:24:24;;;;;;;6.35;4.68;;;;;;;34.62;9.88;101561.41;5007803;28;20064;-73
2021/04/23 10:26:53;;;;;;;5.72;4.80;;;;;;;36.61;9.01;101553.94;5004157;28;20075;-73
2021/04/23 10:29:20;;;;;;;5.30;4.72;;;;;;;36.45;8.75;101552.81;5005199;28;20050;-74
2021/04/23 10:31:48;;;;;;;5.87;5.27;;;;;;;37.74;7.67;101556.63;5004221;28;20057;-73
2021/04/23 10:34:18;;;;;;;7.27;5.70;;;;;;;39.20;7.30;101555.66;5007910;28;20052;-74
2021/04/23 10:36:48;;;;;;;6.90;6.10;;;;;;;40.24;6.55;101557.16;5008893;28;20050;-73
2021/04/23 10:39:21;;;;;;;7.38;6.28;;;;;;;40.64;6.54;101558.81;5011482;28;20053;-74
2021/04/23 10:41:48;;;;;;;6.82;6.18;;;;;;;41.18;6.05;101555.88;5004466;28;20076;-73
2021/04/23 10:44:19;;;;;;;6.65;5.90;;;;;;;40.55;6.25;101565.56;5007513;28;20415;-73
2021/04/23 10:46:51;;;;;;;6.68;5.70;;;;;;;41.88;5.70;101552.28;5004736;28;20065;-73
2021/04/23 10:49:20;;;;;;;6.35;5.65;;;;;;;42.85;5.15;101557.31;5002648;28;20084;-74
2021/04/23 10:52:04;;;;;;;8.38;6.15;;;;;;;42.96;5.02;101555.28;5014109;28;20397;-74
2021/04/23 10:54:33;;;;;;;8.15;6.03;;;;;;;43.22;4.69;101548.63;5019808;28;20053;-74
2021/04/23 10:57:04;;;;;;;7.55;6.68;;;;;;;42.99;4.78;101541.75;5014668;28;20520;-75
2021/04/23 10:59:36;;;;;;;8.80;7.97;;;;;;;43.11;5.03;101543.44;4993858;28;20049;-75
2021/04/23 11:02:17;;;;;;;7.93;7.30;;;;;;;42.89;5.42;101534.44;5009166;28;20050;-75
2021/04/23 11:04:57;;;;;;;9.20;7.95;;;;;;;43.04;5.20;101529.25;5009467;28;20053;-75
2021/04/23 11:07:31;;;;;;;8.10;7.30;;;;;;;43.47;5.27;101528.56;4994368;28;20061;-76
2021/04/23 11:10:01;;;;;;;11.52;10.43;;;;;;;43.51;5.05;101535.81;5005626;28;20160;-76
2021/04/23 11:12:35;;;;;;;9.10;7.57;;;;;;;43.95;4.74;101534.53;5005732;28;20061;-76
2021/04/23 11:15:13;;;;;;;8.13;6.57;;;;;;;43.78;4.37;101525.59;5019578;28;20060;-76
2021/04/23 11:17:41;;;;;;;;;;;;;;;43.71;4.21;101526.09;5014552;28;20064;-76
2021/04/23 11:20:31;;;;;;;;;;;;;;;44.49;4.24;101524.91;5014437;28;19921;-77
2021/04/23 11:23:03;;;;;;;7.53;6.78;;;;;;;43.50;4.51;101519.53;5009315;28;19921;-77
2021/04/23 11:25:31;;;;;;;7.30;6.60;;;;;;;43.45;4.71;101514.44;5031192;28;20052;-78
2021/04/23 11:28:11;;;;;;;8.13;6.78;;;;;;;43.92;4.20;101523.81;5042400;28;20053;-78
2021/04/23 11:31:00;;;;;;;7.40;6.07;;;;;;;43.45;4.58;101525.34;5019565;28;20046;-76
2021/04/23 11:33:53;;;;;;;7.35;6.13;;;;;;;43.66;4.48;101520.19;5012666;28;20056;-77
2021/04/23 11:36:26;;;;;;;8.90;6.22;;;;;;;43.50;4.73;101519.53;5003230;28;20049;-77
2021/04/23 11:38:56;;;;;;;8.45;6.05;;;;;;;43.69;4.40;101522.88;5013789;28;20065;-77